createdAt,value
2023-02-18T00:00:36.014Z,9.83
2023-02-18T00:03:03.746Z,9.83
2023-02-18T00:05:31.560Z,9.84
2023-02-18T00:07:59.334Z,9.85
2023-02-18T00:10:27.107Z,9.83
2023-02-18T00:12:56.209Z,9.81
2023-02-18T00:15:23.992Z,9.80
2023-02-18T00:17:51.728Z,9.79
2023-02-18T00:20:19.812Z,9.76
2023-02-18T00:22:47.387Z,9.76
2023-02-18T00:25:15.315Z,9.74
2023-02-18T00:27:43.063Z,9.72
2023-02-18T00:30:13.026Z,9.72
2023-02-18T00:32:40.816Z,9.72
2023-02-18T00:35:09.579Z,9.72
2023-02-18T00:37:37.390Z,9.71
2023-02-18T00:40:06.029Z,9.70
2023-02-18T00:42:33.763Z,9.67
2023-02-18T00:45:01.530Z,9.65
2023-02-18T00:47:30.704Z,9.65
2023-02-18T00:49:59.140Z,9.63
2023-02-18T00:52:26.919Z,9.60
2023-02-18T00:54:54.679Z,9.57
2023-02-18T00:57:22.439Z,9.54
2023-02-18T00:59:50.450Z,9.49
2023-02-18T01:02:19.163Z,9.46
2023-02-18T01:04:48.357Z,9.42
2023-02-18T01:07:16.202Z,9.38
2023-02-18T01:09:44.936Z,9.32
2023-02-18T01:12:12.685Z,9.26
2023-02-18T01:14:40.442Z,9.22
2023-02-18T01:17:08.204Z,9.19
2023-02-18T01:19:35.994Z,9.15
2023-02-18T01:22:06.729Z,9.13
2023-02-18T01:24:36.004Z,9.10
2023-02-18T01:27:03.771Z,9.10
2023-02-18T01:29:31.562Z,9.05
2023-02-18T01:31:59.506Z,9.01
2023-02-18T01:34:27.380Z,8.98
2023-02-18T01:36:55.124Z,8.95
2023-02-18T01:39:24.336Z,8.92
2023-02-18T01:41:52.164Z,8.90
2023-02-18T01:44:22.313Z,8.90
2023-02-18T01:46:50.512Z,8.91
2023-02-18T01:49:21.926Z,8.90
2023-02-18T01:51:52.698Z,8.89
2023-02-18T01:54:28.402Z,8.91
2023-02-18T01:57:00.779Z,8.92
2023-02-18T01:59:32.650Z,8.92
2023-02-18T02:02:00.862Z,8.92
2023-02-18T02:04:30.871Z,8.92
2023-02-18T02:06:58.637Z,8.93
2023-02-18T02:09:32.044Z,8.93
2023-02-18T02:12:34.649Z,8.98
2023-02-18T02:15:14.625Z,8.96
2023-02-18T02:17:51.231Z,8.93
2023-02-18T02:20:38.509Z,8.94
2023-02-18T02:23:35.724Z,8.96
2023-02-18T02:26:43.997Z,8.96
2023-02-18T02:29:46.162Z,8.95
2023-02-18T02:32:42.119Z,8.96
2023-02-18T02:35:14.844Z,8.95
2023-02-18T02:37:49.618Z,8.97
2023-02-18T02:40:27.610Z,8.98
2023-02-18T02:43:07.417Z,8.98
2023-02-18T02:45:49.395Z,8.95
2023-02-18T02:48:24.262Z,8.96
2023-02-18T02:50:55.727Z,9.02
2023-02-18T02:53:27.762Z,8.98
2023-02-18T02:55:56.229Z,8.98
2023-02-18T02:58:25.336Z,9.02
2023-02-18T03:01:20.467Z,9.05
2023-02-18T03:04:19.218Z,9.08
2023-02-18T03:07:12.254Z,9.10
2023-02-18T03:09:52.268Z,9.11
2023-02-18T03:12:29.304Z,9.15
2023-02-18T03:15:05.135Z,9.17
2023-02-18T03:17:38.683Z,9.18
2023-02-18T03:20:11.790Z,9.22
2023-02-18T03:22:45.012Z,9.26
2023-02-18T03:25:15.765Z,9.31
2023-02-18T03:27:47.562Z,9.33
2023-02-18T03:30:18.884Z,9.35
2023-02-18T03:32:50.150Z,9.36
2023-02-18T03:35:19.699Z,9.37
2023-02-18T03:37:52.547Z,9.38
2023-02-18T03:40:23.837Z,9.38
2023-02-18T03:42:51.574Z,9.38
2023-02-18T03:45:19.371Z,9.38
2023-02-18T03:47:47.385Z,9.38
2023-02-18T03:50:16.954Z,9.36
2023-02-18T03:52:44.658Z,9.41
2023-02-18T03:55:14.323Z,9.38
2023-02-18T03:57:42.142Z,9.38
2023-02-18T04:00:11.619Z,9.39
2023-02-18T04:02:42.283Z,9.40
2023-02-18T04:05:10.642Z,9.41
2023-02-18T04:07:38.487Z,9.41
2023-02-18T04:10:08.475Z,9.41
2023-02-18T04:12:37.631Z,9.41
2023-02-18T04:15:06.017Z,9.42
2023-02-18T04:17:34.826Z,9.43
2023-02-18T04:20:04.612Z,9.45
2023-02-18T04:22:32.462Z,9.46
2023-02-18T04:25:00.551Z,9.48
2023-02-18T04:27:28.326Z,9.49
2023-02-18T04:29:57.671Z,9.49
2023-02-18T04:32:25.495Z,9.50
2023-02-18T04:34:53.748Z,9.51
2023-02-18T04:37:21.487Z,9.52
2023-02-18T04:39:49.282Z,9.54
2023-02-18T04:42:17.129Z,9.53
2023-02-18T04:44:47.257Z,9.54
2023-02-18T04:47:16.691Z,9.53
2023-02-18T04:49:44.567Z,9.54
2023-02-18T04:52:12.489Z,9.54
2023-02-18T04:54:40.299Z,9.52
2023-02-18T04:57:08.123Z,9.52
2023-02-18T04:59:35.902Z,9.51
2023-02-18T05:02:03.966Z,9.51
2023-02-18T05:04:33.114Z,9.50
2023-02-18T05:07:00.900Z,9.49
2023-02-18T05:09:28.794Z,9.49
2023-02-18T05:11:56.584Z,9.47
2023-02-18T05:14:24.396Z,9.47
2023-02-18T05:16:52.132Z,9.46
2023-02-18T05:19:19.925Z,9.45
2023-02-18T05:21:49.088Z,9.45
2023-02-18T05:24:17.052Z,9.44
2023-02-18T05:26:44.787Z,9.43
2023-02-18T05:29:12.660Z,9.43
2023-02-18T05:31:40.504Z,9.44
2023-02-18T05:34:08.346Z,9.42
2023-02-18T05:36:36.107Z,9.41
2023-02-18T05:39:05.561Z,9.42
2023-02-18T05:41:33.470Z,9.42
2023-02-18T05:44:18.894Z,9.43
2023-02-18T05:46:46.712Z,9.43
2023-02-18T05:49:14.529Z,9.42
2023-02-18T05:51:42.291Z,9.43
2023-02-18T05:54:11.387Z,9.43
2023-02-18T05:56:39.191Z,9.45
2023-02-18T05:59:06.956Z,9.46
2023-02-18T06:01:34.866Z,9.46
2023-02-18T06:04:02.653Z,9.46
2023-02-18T06:06:30.432Z,9.47
2023-02-18T06:08:58.287Z,9.46
2023-02-18T06:11:27.524Z,9.47
2023-02-18T06:13:55.364Z,9.48
2023-02-18T06:16:23.156Z,9.48
2023-02-18T06:18:51.054Z,9.48
2023-02-18T06:21:18.834Z,9.49
2023-02-18T06:23:46.672Z,9.49
2023-02-18T06:26:15.829Z,9.50
2023-02-18T06:28:45.024Z,9.51
2023-02-18T06:31:12.844Z,9.51
2023-02-18T06:33:40.652Z,9.52
2023-02-18T06:36:12.292Z,9.53
2023-02-18T06:38:41.892Z,9.54
2023-02-18T06:41:10.526Z,9.54
2023-02-18T06:43:38.835Z,9.54
2023-02-18T06:46:08.742Z,9.53
2023-02-18T06:48:37.844Z,9.53
2023-02-18T06:51:06.079Z,9.53
2023-02-18T06:53:33.974Z,9.52
2023-02-18T06:56:01.737Z,9.52
2023-02-18T06:58:29.553Z,9.51
2023-02-18T07:00:57.396Z,9.49
2023-02-18T07:03:26.601Z,9.49
2023-02-18T07:05:54.387Z,9.47
2023-02-18T07:08:22.170Z,9.46
2023-02-18T07:10:50.026Z,9.45
2023-02-18T07:13:17.937Z,9.43
2023-02-18T07:15:45.708Z,9.43
2023-02-18T07:18:13.553Z,9.43
2023-02-18T07:20:42.676Z,9.43
2023-02-18T07:23:11.196Z,9.43
2023-02-18T07:25:39.072Z,9.44
2023-02-18T07:28:06.907Z,9.44
2023-02-18T07:30:34.816Z,9.42
2023-02-18T07:33:04.049Z,9.41
2023-02-18T07:35:31.899Z,9.41
2023-02-18T07:38:02.932Z,9.38
2023-02-18T07:40:31.038Z,9.36
2023-02-18T07:42:58.827Z,9.36
2023-02-18T07:45:26.632Z,9.34
2023-02-18T07:47:54.422Z,9.35
2023-02-18T07:50:22.240Z,9.33
2023-02-18T07:52:50.036Z,9.34
2023-02-18T07:55:19.327Z,9.33
2023-02-18T07:58:08.941Z,9.33
2023-02-18T08:00:36.750Z,9.31
2023-02-18T08:03:04.859Z,9.28
2023-02-18T08:05:32.496Z,9.31
2023-02-18T08:08:00.225Z,9.28
2023-02-18T08:10:29.453Z,9.27
2023-02-18T08:12:57.245Z,9.24
2023-02-18T08:15:25.063Z,9.25
2023-02-18T08:17:53.389Z,9.23
2023-02-18T08:20:21.315Z,9.20
2023-02-18T08:22:49.102Z,9.18
2023-02-18T08:25:29.070Z,9.18
2023-02-18T08:27:59.617Z,9.17
2023-02-18T08:30:27.906Z,9.13
2023-02-18T08:32:55.873Z,9.15
2023-02-18T08:35:23.653Z,9.12
2023-02-18T08:37:52.448Z,9.11
2023-02-18T08:40:22.599Z,9.08
2023-02-18T08:42:50.455Z,9.07
2023-02-18T08:45:20.133Z,9.04
2023-02-18T08:48:16.211Z,9.03
2023-02-18T08:50:36.020Z,8.98
2023-02-18T08:53:04.260Z,8.96
2023-02-18T08:55:32.415Z,8.97
2023-02-18T08:58:00.364Z,8.97
2023-02-18T09:00:29.628Z,8.96
2023-02-18T09:02:57.406Z,8.94
2023-02-18T09:05:25.196Z,8.91
2023-02-18T09:07:53.110Z,8.93
2023-02-18T09:10:21.053Z,8.90
2023-02-18T09:12:48.865Z,8.91
2023-02-18T09:15:17.236Z,8.94
2023-02-18T09:17:46.392Z,8.96
2023-02-18T09:20:14.658Z,8.96
2023-02-18T09:22:42.240Z,8.98
2023-02-18T09:25:10.374Z,9.00
2023-02-18T09:27:37.993Z,8.98
2023-02-18T09:30:07.301Z,8.98
2023-02-18T09:32:35.682Z,8.99
2023-02-18T09:35:05.514Z,9.03
2023-02-18T09:37:33.337Z,9.07
2023-02-18T09:40:01.107Z,9.08
2023-02-18T09:42:32.509Z,9.11
2023-02-18T09:45:03.815Z,9.16
2023-02-18T09:47:36.669Z,9.18
2023-02-18T09:50:14.450Z,9.22
2023-02-18T09:52:42.383Z,9.22
2023-02-18T09:55:22.986Z,9.24
2023-02-18T09:57:53.420Z,9.29
2023-02-18T10:00:25.800Z,9.29
2023-02-18T10:02:59.043Z,9.28
2023-02-18T10:05:31.344Z,9.31
2023-02-18T10:08:05.224Z,9.32
2023-02-18T10:10:40.077Z,9.37
2023-02-18T10:13:12.083Z,9.40
2023-02-18T10:15:40.373Z,9.44
2023-02-18T10:18:19.119Z,9.52
2023-02-18T10:20:49.605Z,9.58
2023-02-18T10:23:18.055Z,9.65
2023-02-18T10:25:48.626Z,9.68
2023-02-18T10:28:26.087Z,9.73
2023-02-18T10:30:59.268Z,9.77
2023-02-18T10:33:36.072Z,9.80
2023-02-18T10:36:24.149Z,9.88
2023-02-18T10:39:07.587Z,9.91
2023-02-18T10:41:45.808Z,10.01
2023-02-18T10:44:24.063Z,10.10
2023-02-18T10:47:01.880Z,10.19
2023-02-18T10:49:42.265Z,10.32
2023-02-18T10:52:17.241Z,10.34
2023-02-18T10:54:54.633Z,10.40
2023-02-18T10:57:24.170Z,10.45
2023-02-18T10:59:58.029Z,10.54
2023-02-18T11:02:30.776Z,10.58
2023-02-18T11:05:00.653Z,10.61
2023-02-18T11:07:34.707Z,10.59
2023-02-18T11:10:16.033Z,10.55
2023-02-18T11:12:47.016Z,10.61
2023-02-18T11:15:20.406Z,10.75
2023-02-18T11:17:50.295Z,10.79
2023-02-18T11:20:32.052Z,10.98
2023-02-18T11:23:16.797Z,11.12
2023-02-18T11:25:58.492Z,11.06
2023-02-18T11:28:34.835Z,11.00
2023-02-18T11:31:05.135Z,10.98
2023-02-18T11:33:36.412Z,10.94
2023-02-18T11:36:15.276Z,10.90
2023-02-18T11:38:47.936Z,10.88
2023-02-18T11:41:19.896Z,10.86
2023-02-18T11:43:50.570Z,10.79
2023-02-18T11:46:22.045Z,10.71
2023-02-18T11:48:50.624Z,10.71
2023-02-18T11:51:21.619Z,10.71
2023-02-18T11:54:02.690Z,10.81
2023-02-18T11:56:33.889Z,10.85
2023-02-18T11:59:03.019Z,10.85
2023-02-18T12:01:42.824Z,10.79
2023-02-18T12:04:14.661Z,10.83
2023-02-18T12:06:50.527Z,10.85
2023-02-18T12:09:28.394Z,10.91
2023-02-18T12:12:00.236Z,10.91
2023-02-18T12:14:28.586Z,10.97
2023-02-18T12:17:26.575Z,10.97
2023-02-18T12:20:17.741Z,11.03
2023-02-18T12:22:50.662Z,10.98
2023-02-18T12:25:28.492Z,11.00
2023-02-18T12:28:10.665Z,11.02
2023-02-18T12:31:10.972Z,11.04
2023-02-18T12:33:49.943Z,11.07
2023-02-18T12:36:27.444Z,11.15
2023-02-18T12:39:03.069Z,11.21
2023-02-18T12:41:54.612Z,11.25
2023-02-18T12:44:33.310Z,11.36
2023-02-18T12:47:19.599Z,11.42
2023-02-18T12:50:23.997Z,11.48
2023-02-18T12:53:06.295Z,11.66
2023-02-18T12:55:51.714Z,11.84
2023-02-18T12:58:32.464Z,11.95
2023-02-18T13:01:16.798Z,11.97
2023-02-18T13:04:04.706Z,12.02
2023-02-18T13:06:47.999Z,11.95
2023-02-18T13:09:24.856Z,11.91
2023-02-18T13:12:04.663Z,11.83
2023-02-18T13:14:37.548Z,11.79
2023-02-18T13:17:06.693Z,11.73
2023-02-18T13:19:40.329Z,11.71
2023-02-18T13:22:13.486Z,11.70
2023-02-18T13:24:45.827Z,11.68
2023-02-18T13:27:23.188Z,11.71
2023-02-18T13:30:02.871Z,11.74
2023-02-18T13:32:35.816Z,11.74
2023-02-18T13:35:16.894Z,11.72
2023-02-18T13:38:01.013Z,11.68
2023-02-18T13:40:31.266Z,11.69
2023-02-18T13:43:30.372Z,11.72
2023-02-18T13:46:14.500Z,11.70
2023-02-18T13:48:50.800Z,11.73
2023-02-18T13:51:31.565Z,11.77
2023-02-18T13:54:05.261Z,11.83
2023-02-18T13:56:36.160Z,11.86
2023-02-18T13:59:10.816Z,11.85
2023-02-18T14:01:45.504Z,11.85
2023-02-18T14:04:36.476Z,11.83
2023-02-18T14:07:46.770Z,11.89
2023-02-18T14:10:36.483Z,11.97
2023-02-18T14:13:20.474Z,12.05
2023-02-18T14:15:56.069Z,12.13
2023-02-18T14:18:50.967Z,12.18
2023-02-18T14:21:36.935Z,12.27
2023-02-18T14:24:07.258Z,12.42
2023-02-18T14:26:37.969Z,12.50
2023-02-18T14:29:14.003Z,12.56
2023-02-18T14:31:52.441Z,12.51
2023-02-18T14:34:51.893Z,12.59
2023-02-18T14:37:52.125Z,12.56
2023-02-18T14:40:59.930Z,12.65
2023-02-18T14:43:41.054Z,12.77
2023-02-18T14:46:22.425Z,12.76
2023-02-18T14:49:22.507Z,12.58
2023-02-18T14:51:53.578Z,12.57
2023-02-18T14:54:24.875Z,12.58
2023-02-18T14:56:57.589Z,12.53
2023-02-18T14:59:28.380Z,12.53
2023-02-18T15:01:57.445Z,12.48
2023-02-18T15:04:26.814Z,12.47
2023-02-18T15:07:05.021Z,12.39
2023-02-18T15:09:33.087Z,12.39
2023-02-18T15:12:04.682Z,12.42
2023-02-18T15:14:36.317Z,12.44
2023-02-18T15:17:05.334Z,12.41
2023-02-18T15:19:41.017Z,12.41
2023-02-18T15:22:17.023Z,12.37
2023-02-18T15:24:45.441Z,12.39
2023-02-18T15:27:16.805Z,12.35
2023-02-18T15:29:44.762Z,12.32
2023-02-18T15:32:18.253Z,12.32
2023-02-18T15:34:47.219Z,12.33
2023-02-18T15:37:16.556Z,12.30
2023-02-18T15:39:44.871Z,12.28
2023-02-18T15:42:19.732Z,12.26
2023-02-18T15:44:49.806Z,12.17
2023-02-18T15:47:19.080Z,12.11
2023-02-18T15:49:50.286Z,12.08
2023-02-18T15:52:25.201Z,12.02
2023-02-18T15:54:53.567Z,11.97
2023-02-18T15:57:27.711Z,11.91
2023-02-18T15:59:58.532Z,11.88
2023-02-18T16:02:26.723Z,11.84
2023-02-18T16:05:04.985Z,11.78
2023-02-18T16:07:51.219Z,11.70
2023-02-18T16:10:23.068Z,11.66
2023-02-18T16:12:54.047Z,11.62
2023-02-18T16:15:27.354Z,11.58
2023-02-18T16:17:56.017Z,11.54
2023-02-18T16:20:31.349Z,11.50
2023-02-18T16:23:04.524Z,11.47
2023-02-18T16:25:43.955Z,11.42
2023-02-18T16:28:16.277Z,11.41
2023-02-18T16:30:46.521Z,11.39
2023-02-18T16:33:15.074Z,11.36
2023-02-18T16:35:49.951Z,11.32
2023-02-18T16:38:22.039Z,11.31
2023-02-18T16:40:50.677Z,11.28
2023-02-18T16:43:20.244Z,11.25
2023-02-18T16:45:50.787Z,11.23
2023-02-18T16:48:22.525Z,11.20
2023-02-18T16:50:51.577Z,11.18
2023-02-18T16:53:21.172Z,11.15
2023-02-18T16:55:50.618Z,11.13
2023-02-18T16:58:18.483Z,11.11
2023-02-18T17:00:48.033Z,11.09
2023-02-18T17:03:15.971Z,11.05
2023-02-18T17:05:43.769Z,11.04
2023-02-18T17:08:19.146Z,11.04
2023-02-18T17:10:49.602Z,11.02
2023-02-18T17:13:18.455Z,11.01
2023-02-18T17:15:48.229Z,11.00
2023-02-18T17:18:17.249Z,10.98
2023-02-18T17:20:45.929Z,10.97
2023-02-18T17:23:15.454Z,10.94
2023-02-18T17:25:44.030Z,10.92
2023-02-18T17:28:13.265Z,10.90
2023-02-18T17:30:42.910Z,10.87
2023-02-18T17:33:14.871Z,10.85
2023-02-18T17:35:42.714Z,10.83
2023-02-18T17:38:12.008Z,10.80
2023-02-18T17:40:40.076Z,10.78
2023-02-18T17:43:08.041Z,10.74
2023-02-18T17:45:40.847Z,10.74
2023-02-18T17:48:08.743Z,10.73
2023-02-18T17:50:36.725Z,10.71
2023-02-18T17:53:04.862Z,10.69
2023-02-18T17:55:35.166Z,10.72
2023-02-18T17:58:03.161Z,10.71
2023-02-18T18:00:32.009Z,10.70
2023-02-18T18:03:02.175Z,10.68
2023-02-18T18:05:33.225Z,10.66
2023-02-18T18:08:01.655Z,10.66
2023-02-18T18:10:33.232Z,10.64
2023-02-18T18:13:02.671Z,10.63
2023-02-18T18:15:34.308Z,10.59
2023-02-18T18:18:03.896Z,10.55
2023-02-18T18:20:34.290Z,10.50
2023-02-18T18:23:04.276Z,10.47
2023-02-18T18:25:36.918Z,10.43
2023-02-18T18:28:05.054Z,10.39
2023-02-18T18:30:35.250Z,10.37
2023-02-18T18:33:11.020Z,10.31
2023-02-18T18:35:38.806Z,10.29
2023-02-18T18:38:06.639Z,10.24
2023-02-18T18:40:34.816Z,10.21
2023-02-18T18:43:03.846Z,10.19
2023-02-18T18:45:33.934Z,10.18
2023-02-18T18:48:02.142Z,10.19
2023-02-18T18:50:31.675Z,10.19
2023-02-18T18:52:59.410Z,10.20
2023-02-18T18:55:32.134Z,10.19
2023-02-18T18:58:00.639Z,10.19
2023-02-18T19:00:31.057Z,10.18
2023-02-18T19:03:00.149Z,10.17
2023-02-18T19:05:32.665Z,10.17
2023-02-18T19:08:01.325Z,10.18
2023-02-18T19:10:31.321Z,10.17
2023-02-18T19:13:02.981Z,10.16
2023-02-18T19:15:31.853Z,10.15
2023-02-18T19:17:59.705Z,10.14
2023-02-18T19:20:30.449Z,10.13
2023-02-18T19:23:00.332Z,10.14
2023-02-18T19:25:28.332Z,10.12
2023-02-18T19:27:56.187Z,10.10
2023-02-18T19:30:26.240Z,10.08
2023-02-18T19:32:57.532Z,10.08
2023-02-18T19:35:27.124Z,10.08
2023-02-18T19:37:55.185Z,10.09
2023-02-18T19:40:25.315Z,10.10
2023-02-18T19:42:53.320Z,10.07
2023-02-18T19:45:22.219Z,10.07
2023-02-18T19:47:55.275Z,10.06
2023-02-18T19:50:23.326Z,10.06
2023-02-18T19:52:52.987Z,10.08
2023-02-18T19:55:21.031Z,10.08
2023-02-18T19:57:50.598Z,10.09
2023-02-18T20:00:20.601Z,10.09
2023-02-18T20:02:48.457Z,10.05
2023-02-18T20:05:16.324Z,10.04
2023-02-18T20:07:46.186Z,10.02
2023-02-18T20:10:16.278Z,9.98
2023-02-18T20:12:44.410Z,9.94
2023-02-18T20:15:13.425Z,9.96
2023-02-18T20:17:41.184Z,9.89
2023-02-18T20:20:09.628Z,9.88
2023-02-18T20:22:37.406Z,9.86
2023-02-18T20:25:08.295Z,9.85
2023-02-18T20:27:37.519Z,9.86
2023-02-18T20:30:09.363Z,9.85
2023-02-18T20:32:38.856Z,9.84
2023-02-18T20:35:07.756Z,9.83
2023-02-18T20:37:35.522Z,9.83
2023-02-18T20:40:03.348Z,9.83
2023-02-18T20:42:31.247Z,9.83
2023-02-18T20:44:59.078Z,9.84
2023-02-18T20:47:26.871Z,9.85
2023-02-18T20:49:56.043Z,9.87
2023-02-18T20:52:23.888Z,9.85
2023-02-18T20:54:51.704Z,9.84
2023-02-18T20:57:19.455Z,9.84
2023-02-18T20:59:47.405Z,9.84
2023-02-18T21:02:16.678Z,9.86
2023-02-18T21:04:45.266Z,9.87
2023-02-18T21:07:14.418Z,9.86
2023-02-18T21:09:42.358Z,9.86
2023-02-18T21:12:10.970Z,9.83
2023-02-18T21:14:38.762Z,9.82
2023-02-18T21:17:08.512Z,9.81
2023-02-18T21:19:37.269Z,9.82
2023-02-18T21:22:05.073Z,9.83
2023-02-18T21:24:34.254Z,9.83
2023-02-18T21:27:02.048Z,9.84
2023-02-18T21:29:29.857Z,9.84
2023-02-18T21:31:57.766Z,9.85
2023-02-18T21:34:26.322Z,9.85
2023-02-18T21:36:54.159Z,9.86
2023-02-18T21:39:21.925Z,9.85
2023-02-18T21:41:51.061Z,9.84
2023-02-18T21:44:19.513Z,9.83
2023-02-18T21:46:48.167Z,9.84
2023-02-18T21:49:16.887Z,9.84
2023-02-18T21:52:00.376Z,9.84
2023-02-18T21:54:30.656Z,9.85
2023-02-18T21:57:01.106Z,9.86
2023-02-18T21:59:30.379Z,9.87
2023-02-18T22:02:00.827Z,9.86
2023-02-18T22:04:29.695Z,9.87
2023-02-18T22:06:58.353Z,9.85
2023-02-18T22:09:26.868Z,9.85
2023-02-18T22:11:54.847Z,9.85
2023-02-18T22:14:24.400Z,9.86
2023-02-18T22:16:52.183Z,9.86
2023-02-18T22:19:20.448Z,9.88
2023-02-18T22:21:49.219Z,9.89
2023-02-18T22:24:18.606Z,9.88
2023-02-18T22:26:46.960Z,9.87
2023-02-18T22:29:15.710Z,9.88
2023-02-18T22:31:45.063Z,9.88
2023-02-18T22:34:12.851Z,9.88
2023-02-18T22:36:40.955Z,9.88
2023-02-18T22:39:09.159Z,9.88
2023-02-18T22:41:36.770Z,9.90
2023-02-18T22:44:06.393Z,9.89
2023-02-18T22:46:36.718Z,9.90
2023-02-18T22:49:07.250Z,9.90
2023-02-18T22:51:37.767Z,9.90
2023-02-18T22:54:07.556Z,9.89
2023-02-18T22:56:35.450Z,9.89
2023-02-18T22:59:03.527Z,9.89
2023-02-18T23:01:32.578Z,9.90
2023-02-18T23:04:06.534Z,9.89
2023-02-18T23:06:34.940Z,9.89
2023-02-18T23:09:02.790Z,9.88
2023-02-18T23:11:30.595Z,9.89
2023-02-18T23:14:15.728Z,9.89
2023-02-18T23:17:01.394Z,9.89
2023-02-18T23:19:32.289Z,9.88
2023-02-18T23:22:00.412Z,9.88
2023-02-18T23:24:27.994Z,9.91
2023-02-18T23:26:55.745Z,9.88
2023-02-18T23:29:23.557Z,9.87
2023-02-18T23:31:51.381Z,9.87
2023-02-18T23:34:19.266Z,9.87
2023-02-18T23:36:48.792Z,9.87
2023-02-18T23:39:21.371Z,9.86
2023-02-18T23:41:50.043Z,9.85
2023-02-18T23:44:19.582Z,9.86
2023-02-18T23:46:48.039Z,9.84
2023-02-18T23:49:17.459Z,9.84
2023-02-18T23:51:45.291Z,9.83
2023-02-18T23:54:14.688Z,9.82
2023-02-18T23:56:42.426Z,9.81
2023-02-18T23:59:12.016Z,9.80
